Time;durP1;ratioP1;P1;durP2;ratioP2;P2;SDS_P1;SDS_P2;PMS_P1;PMS_P2;Temp;Humidity;BMP_temperature;BMP_pressure;BME280_temperature;BME280_humidity;BME280_pressure;Samples;Min_cycle;Max_cycle;Signal;HPM_P1;HPM_P2
2022/10/03 00:00:19;;;;;;;14.50;4.32;;;11.20;99.90;;;;;;4977245;28;20035;-72
2022/10/03 00:03:33;;;;;;;15.13;5.47;;;11.30;99.90;;;;;;4986268;28;20073;-68
2022/10/03 00:06:39;;;;;;;12.95;4.70;;;11.20;99.90;;;;;;4982843;28;20394;-70
2022/10/03 00:09:55;;;;;;;11.18;4.55;;;11.30;99.90;;;;;;4990637;28;20037;-69
2022/10/03 00:12:46;;;;;;;21.13;5.25;;;11.20;99.90;;;;;;4989895;28;20565;-70
2022/10/03 00:15:54;;;;;;;12.60;4.35;;;11.10;99.90;;;;;;4985594;28;20121;-66
2022/10/03 00:19:06;;;;;;;16.38;5.05;;;11.10;99.90;;;;;;4988385;28;20026;-68
2022/10/03 00:22:10;;;;;;;13.32;5.30;;;11.10;99.90;;;;;;4991098;28;20027;-68
2022/10/03 00:25:31;;;;;;;12.75;5.47;;;11.30;99.90;;;;;;4991918;28;20399;-68
2022/10/03 00:28:38;;;;;;;13.13;4.35;;;11.50;99.90;;;;;;4992825;28;20080;-68
2022/10/03 00:31:46;;;;;;;13.20;4.30;;;11.60;99.90;;;;;;4990810;28;20064;-70
2022/10/03 00:34:44;;;;;;;15.65;4.78;;;11.70;99.90;;;;;;4999209;28;20033;-69
2022/10/03 00:37:55;;;;;;;15.90;4.78;;;11.90;99.90;;;;;;5008968;28;20070;-67
2022/10/03 00:40:54;;;;;;;12.35;4.78;;;11.80;99.90;;;;;;5008108;28;20026;-70
2022/10/03 00:44:29;;;;;;;11.95;4.70;;;11.90;99.90;;;;;;4995453;28;20095;-70
2022/10/03 00:47:15;;;;;;;11.20;3.78;;;11.80;99.90;;;;;;4996355;28;20049;-69
2022/10/03 00:50:01;;;;;;;12.27;4.15;;;11.80;99.90;;;;;;4995732;28;20082;-71
2022/10/03 00:52:54;;;;;;;9.32;4.60;;;11.70;99.90;;;;;;4987591;28;20029;-70
2022/10/03 00:56:02;;;;;;;9.30;3.97;;;11.70;99.90;;;;;;4991665;28;20383;-70
2022/10/03 00:59:03;;;;;;;10.05;3.90;;;11.80;99.90;;;;;;4990294;28;20101;-69
2022/10/03 01:01:50;;;;;;;8.93;4.03;;;11.90;99.90;;;;;;4988659;28;20089;-69
2022/10/03 01:08:34;;;;;;;9.77;4.75;;;12.00;99.90;;;;;;5004264;28;20026;-68
2022/10/03 01:11:33;;;;;;;16.77;5.30;;;12.00;99.90;;;;;;4999189;28;20030;-69
2022/10/03 01:14:30;;;;;;;12.73;4.45;;;11.80;99.90;;;;;;5001507;28;20694;-72
2022/10/03 01:17:33;;;;;;;9.10;4.13;;;11.60;99.90;;;;;;4991205;28;20038;-70
2022/10/03 01:20:27;;;;;;;14.80;4.82;;;11.50;99.90;;;;;;4983760;28;20442;-71
2022/10/03 01:23:44;;;;;;;12.52;4.90;;;11.40;99.90;;;;;;4984999;28;20518;-71
2022/10/03 01:26:54;;;;;;;17.65;4.80;;;11.60;99.90;;;;;;4986916;28;20042;-71
2022/10/03 01:33:01;;;;;;;14.35;5.05;;;11.50;99.90;;;;;;4990322;28;20466;-69
2022/10/03 01:36:07;;;;;;;14.73;5.22;;;11.50;99.90;;;;;;4972703;28;20089;-69
2022/10/03 01:39:11;;;;;;;20.90;4.32;;;11.60;99.90;;;;;;4978895;28;20022;-67
2022/10/03 01:42:17;;;;;;;14.90;4.32;;;11.60;99.90;;;;;;4992263;28;20106;-69
2022/10/03 01:45:12;;;;;;;;;;;11.60;99.90;;;;;;4992436;28;20037;-66
2022/10/03 01:48:03;;;;;;;13.60;4.28;;;11.70;99.90;;;;;;4992735;28;19913;-67
2022/10/03 01:51:15;;;;;;;16.02;4.32;;;11.60;99.90;;;;;;4991710;28;20042;-67
2022/10/03 01:54:28;;;;;;;12.57;4.30;;;11.60;99.90;;;;;;4991463;28;20541;-68
2022/10/03 01:57:42;;;;;;;12.88;3.90;;;11.70;99.90;;;;;;4992390;28;20506;-68
2022/10/03 02:01:09;;;;;;;12.27;4.45;;;11.80;99.90;;;;;;4973761;28;20042;-67
2022/10/03 02:04:15;;;;;;;;;;;11.60;99.90;;;;;;4981048;28;20023;-66
2022/10/03 02:07:20;;;;;;;13.50;5.13;;;11.60;99.90;;;;;;4990843;28;19910;-67
2022/10/03 02:10:12;;;;;;;15.45;4.28;;;11.60;99.90;;;;;;4989304;28;20038;-68
2022/10/03 02:13:23;;;;;;;8.50;4.57;;;11.60;99.90;;;;;;4983209;28;20285;-66
2022/10/03 02:16:43;;;;;;;13.30;4.30;;;11.50;99.90;;;;;;4990250;28;20030;-68
2022/10/03 02:19:33;;;;;;;11.45;3.97;;;11.60;99.90;;;;;;4972487;28;20015;-69
2022/10/03 02:22:52;;;;;;;10.70;4.35;;;11.60;99.90;;;;;;4985409;28;20369;-65
2022/10/03 02:25:39;;;;;;;11.23;4.25;;;11.50;99.90;;;;;;4971339;28;20178;-66
2022/10/03 02:29:05;;;;;;;13.75;4.20;;;11.40;99.90;;;;;;5003343;28;20671;-69
2022/10/03 02:32:04;;;;;;;;;;;11.20;99.90;;;;;;4991869;28;20077;-67
2022/10/03 02:35:38;;;;;;;9.77;3.78;;;11.20;99.90;;;;;;4990994;28;19953;-67
2022/10/03 02:38:45;;;;;;;13.25;4.22;;;11.30;99.90;;;;;;4989883;28;20028;-68
2022/10/03 02:41:52;;;;;;;17.35;4.03;;;11.40;99.90;;;;;;4992668;28;20537;-67
2022/10/03 02:45:10;;;;;;;16.00;4.10;;;11.50;99.90;;;;;;4991288;28;20038;-65
2022/10/03 02:48:24;;;;;;;11.60;4.13;;;11.50;99.90;;;;;;4986235;28;20122;-67
2022/10/03 02:51:43;;;;;;;13.50;5.03;;;11.20;99.90;;;;;;4991073;28;20026;-68
2022/10/03 02:54:54;;;;;;;14.30;4.30;;;11.10;99.90;;;;;;4984755;28;20650;-66
2022/10/03 02:58:06;;;;;;;16.02;4.65;;;11.20;99.90;;;;;;4990089;28;20030;-67
2022/10/03 03:01:20;;;;;;;11.98;4.15;;;11.30;99.90;;;;;;4990733;28;20048;-68
2022/10/03 03:04:31;;;;;;;13.10;4.85;;;11.40;99.90;;;;;;4984061;28;20050;-68
2022/10/03 03:07:58;;;;;;;15.20;4.85;;;11.40;99.90;;;;;;4985469;28;20037;-67
2022/10/03 03:11:22;;;;;;;14.75;4.85;;;11.30;99.90;;;;;;4990866;28;20066;-67
2022/10/03 03:14:33;;;;;;;17.92;4.22;;;11.30;99.90;;;;;;4990719;28;20391;-71
2022/10/03 03:17:24;;;;;;;18.75;4.63;;;11.30;99.90;;;;;;4990430;28;20019;-65
2022/10/03 03:20:31;;;;;;;13.63;4.13;;;11.40;99.90;;;;;;4990925;28;20026;-66
2022/10/03 03:23:53;;;;;;;18.92;4.75;;;11.30;99.90;;;;;;4972294;28;20031;-69
2022/10/03 03:26:39;;;;;;;17.15;4.95;;;11.30;99.90;;;;;;4980182;28;20019;-66
2022/10/03 03:29:56;;;;;;;11.75;4.15;;;11.20;99.90;;;;;;4994154;28;20026;-67
2022/10/03 03:33:00;;;;;;;15.00;5.35;;;11.10;99.90;;;;;;4994931;28;20022;-67
2022/10/03 03:36:26;;;;;;;15.10;4.28;;;10.80;99.90;;;;;;4994236;28;20045;-67
2022/10/03 03:39:31;;;;;;;18.20;4.65;;;10.80;99.90;;;;;;4974327;28;20035;-66
2022/10/03 03:42:33;;;;;;;15.73;4.87;;;10.90;99.90;;;;;;4985868;28;20482;-70
2022/10/03 03:45:32;;;;;;;15.60;5.38;;;10.80;99.90;;;;;;4993961;28;20092;-69
2022/10/03 03:48:38;;;;;;;22.13;5.55;;;10.80;99.90;;;;;;4993957;28;20029;-67
2022/10/03 03:51:27;;;;;;;12.25;5.05;;;10.90;99.90;;;;;;4993738;28;20039;-67
2022/10/03 03:54:39;;;;;;;20.27;5.30;;;10.80;99.90;;;;;;4993811;28;20046;-66
2022/10/03 03:57:27;;;;;;;18.00;4.63;;;11.00;99.90;;;;;;4993512;28;20060;-66
2022/10/03 04:00:21;;;;;;;14.50;4.80;;;11.10;99.90;;;;;;4993484;28;20027;-66
2022/10/03 04:03:18;;;;;;;15.32;4.90;;;11.20;99.90;;;;;;4993073;28;20033;-65
2022/10/03 04:06:24;;;;;;;14.50;5.10;;;11.20;99.90;;;;;;4994052;28;20026;-66
2022/10/03 04:09:29;;;;;;;16.08;4.57;;;11.20;99.90;;;;;;4974824;28;20451;-68
2022/10/03 04:12:40;;;;;;;16.95;5.07;;;11.20;99.90;;;;;;4983296;28;20030;-67
2022/10/03 04:15:46;;;;;;;12.75;4.40;;;11.30;99.90;;;;;;4993731;28;20018;-69
2022/10/03 04:18:58;;;;;;;15.75;4.90;;;11.40;99.90;;;;;;4993819;28;20034;-71
2022/10/03 04:22:02;;;;;;;11.38;4.22;;;11.50;99.90;;;;;;4992917;28;20121;-70
2022/10/03 04:25:14;;;;;;;15.40;5.03;;;11.40;99.90;;;;;;4994310;28;20383;-66
2022/10/03 04:28:33;;;;;;;11.50;4.35;;;11.40;99.90;;;;;;4994276;28;20042;-67
2022/10/03 04:31:26;;;;;;;13.80;4.88;;;11.30;99.90;;;;;;4993387;28;20168;-68
2022/10/03 04:34:30;;;;;;;15.65;4.93;;;11.50;99.90;;;;;;4992855;28;20054;-67
2022/10/03 04:37:40;;;;;;;11.77;4.60;;;11.50;99.90;;;;;;4991951;28;20041;-66
2022/10/03 04:40:51;;;;;;;14.45;4.90;;;11.50;99.90;;;;;;4993334;28;20029;-66
2022/10/03 04:44:03;;;;;;;17.55;4.57;;;11.50;99.90;;;;;;4993194;28;20022;-65
2022/10/03 04:46:54;;;;;;;11.38;4.78;;;11.60;99.90;;;;;;5005307;28;20022;-69
2022/10/03 04:49:40;;;;;;;14.00;4.20;;;11.50;99.90;;;;;;5008097;28;20018;-66
2022/10/03 04:52:43;;;;;;;11.20;4.93;;;11.40;99.90;;;;;;4996255;28;20502;-66
2022/10/03 04:55:57;;;;;;;12.55;4.97;;;11.30;99.90;;;;;;4992634;28;20034;-66
2022/10/03 04:59:08;;;;;;;10.23;4.85;;;11.50;99.90;;;;;;4974699;28;20031;-68
2022/10/03 05:02:11;;;;;;;12.15;4.03;;;11.30;99.90;;;;;;4987153;28;20022;-67
2022/10/03 05:05:00;;;;;;;17.52;4.75;;;11.30;99.90;;;;;;4993485;28;20030;-67
2022/10/03 05:08:11;;;;;;;10.20;4.20;;;11.30;99.90;;;;;;4973034;28;20043;-68
2022/10/03 05:11:08;;;;;;;14.98;4.93;;;11.40;99.90;;;;;;4980167;28;20029;-67
2022/10/03 05:14:19;;;;;;;10.07;4.50;;;11.40;99.90;;;;;;4992153;28;20034;-67
2022/10/03 05:17:22;;;;;;;8.40;4.75;;;11.30;99.90;;;;;;4991956;28;20384;-68
2022/10/03 05:20:33;;;;;;;9.35;4.30;;;11.40;99.90;;;;;;4993074;28;20077;-65
2022/10/03 05:23:47;;;;;;;15.00;4.57;;;11.30;99.90;;;;;;4991588;28;20023;-66
2022/10/03 05:27:10;;;;;;;11.35;5.15;;;11.30;99.90;;;;;;4991725;28;20038;-69
2022/10/03 05:30:26;;;;;;;17.10;4.65;;;11.40;99.90;;;;;;4992021;28;20034;-66
2022/10/03 05:33:30;;;;;;;14.35;5.07;;;11.40;99.90;;;;;;4973453;28;20027;-66
2022/10/03 05:36:35;;;;;;;12.27;4.95;;;11.50;99.90;;;;;;4978511;28;20066;-66
2022/10/03 05:39:26;;;;;;;14.52;4.85;;;11.30;99.90;;;;;;4990974;28;20018;-68
2022/10/03 05:42:35;;;;;;;13.93;5.00;;;11.30;99.90;;;;;;4991997;28;20027;-68
2022/10/03 05:45:30;;;;;;;13.90;4.68;;;11.20;99.90;;;;;;4991435;28;20019;-68
2022/10/03 05:48:40;;;;;;;10.77;4.50;;;11.20;99.90;;;;;;4973125;28;20467;-67
2022/10/03 05:51:54;;;;;;;14.55;5.93;;;11.40;99.90;;;;;;4979128;28;20046;-66
2022/10/03 05:55:22;;;;;;;14.90;4.78;;;11.40;99.90;;;;;;4991333;28;20092;-70
2022/10/03 05:58:45;;;;;;;13.55;4.60;;;11.60;99.90;;;;;;4991152;28;20139;-66
2022/10/03 06:01:46;;;;;;;10.35;4.28;;;11.70;99.90;;;;;;4990691;28;20030;-67
2022/10/03 06:05:00;;;;;;;10.35;4.65;;;11.70;99.90;;;;;;4991457;28;20033;-68
2022/10/03 06:07:54;;;;;;;10.63;4.53;;;11.70;99.90;;;;;;4972929;28;20054;-69
2022/10/03 06:10:54;;;;;;;12.48;5.30;;;11.60;99.90;;;;;;4975609;28;20084;-68
2022/10/03 06:13:55;;;;;;;13.45;4.80;;;11.60;99.90;;;;;;4991171;28;20030;-66
2022/10/03 06:16:51;;;;;;;14.50;5.10;;;11.50;99.90;;;;;;4990761;28;20105;-66
2022/10/03 06:19:52;;;;;;;10.70;5.13;;;11.60;99.90;;;;;;4990715;28;20025;-67
2022/10/03 06:22:59;;;;;;;14.00;5.28;;;11.60;99.90;;;;;;4990534;28;20105;-67
2022/10/03 06:25:57;;;;;;;13.48;5.32;;;11.80;99.90;;;;;;4990402;28;20030;-68
2022/10/03 06:28:55;;;;;;;14.02;4.65;;;11.80;99.90;;;;;;4990578;28;20057;-67
2022/10/03 06:31:55;;;;;;;11.40;4.25;;;11.90;99.90;;;;;;4990019;28;20027;-67
2022/10/03 06:34:50;;;;;;;10.15;5.07;;;11.90;99.90;;;;;;4990973;28;20564;-67
2022/10/03 06:38:01;;;;;;;11.35;4.68;;;11.90;99.90;;;;;;4972815;28;20035;-66
2022/10/03 06:41:05;;;;;;;15.55;4.72;;;11.90;99.90;;;;;;4976308;28;20030;-68
2022/10/03 06:44:06;;;;;;;11.75;5.10;;;11.90;99.90;;;;;;4990702;28;20479;-67
2022/10/03 06:47:07;;;;;;;11.63;4.70;;;12.00;99.90;;;;;;4990221;28;20487;-69
2022/10/03 06:50:12;;;;;;;9.70;4.80;;;12.10;99.90;;;;;;4990370;28;20038;-67
2022/10/03 06:53:36;;;;;;;18.00;5.30;;;12.00;99.90;;;;;;4971030;28;20046;-68
2022/10/03 06:56:37;;;;;;;11.75;5.57;;;12.10;99.90;;;;;;4983528;28;20072;-66
2022/10/03 06:59:34;;;;;;;16.08;5.57;;;12.30;99.90;;;;;;4989829;28;20110;-66
2022/10/03 07:02:53;;;;;;;13.13;5.80;;;12.40;99.90;;;;;;4994035;28;20023;-68
2022/10/03 07:05:59;;;;;;;15.50;6.20;;;12.40;99.90;;;;;;4960861;28;20031;-68
2022/10/03 07:09:10;;;;;;;20.15;6.15;;;12.40;99.90;;;;;;4994216;28;20038;-67
2022/10/03 07:12:15;;;;;;;16.35;7.65;;;12.30;99.90;;;;;;4998962;28;20125;-68
2022/10/03 07:15:28;;;;;;;15.15;6.25;;;12.30;99.90;;;;;;4996482;28;20030;-65
2022/10/03 07:18:16;;;;;;;19.77;6.60;;;12.40;99.90;;;;;;4995553;28;20121;-67
2022/10/03 07:21:27;;;;;;;17.83;6.30;;;12.50;99.90;;;;;;4995396;28;20343;-67
2022/10/03 07:24:44;;;;;;;15.98;6.40;;;12.30;99.90;;;;;;4994612;28;20406;-67
2022/10/03 07:27:49;;;;;;;17.00;5.50;;;12.50;99.90;;;;;;4993881;28;20033;-69
2022/10/03 07:30:47;;;;;;;15.03;5.87;;;12.40;99.90;;;;;;4994141;28;20045;-69
2022/10/03 07:34:12;;;;;;;11.13;5.30;;;12.40;99.90;;;;;;4993577;28;20423;-69
2022/10/03 07:40:49;;;;;;;12.85;5.18;;;12.60;99.90;;;;;;4994690;28;20466;-70
2022/10/03 07:44:00;;;;;;;15.07;5.75;;;12.70;99.90;;;;;;4993541;28;20022;-68
2022/10/03 07:47:22;;;;;;;11.98;5.45;;;12.80;99.90;;;;;;4986049;28;20062;-67
2022/10/03 07:50:42;;;;;;;14.20;5.72;;;12.90;99.90;;;;;;4994750;28;20031;-68
2022/10/03 07:53:42;;;;;;;16.05;5.28;;;12.90;99.90;;;;;;4976555;28;20491;-68
2022/10/03 07:56:56;;;;;;;15.05;5.93;;;13.10;99.90;;;;;;4985464;28;20041;-68
2022/10/03 07:59:45;;;;;;;14.48;5.10;;;13.10;99.90;;;;;;4992842;28;20018;-69
2022/10/03 08:02:46;;;;;;;16.42;5.38;;;13.10;99.90;;;;;;4993689;28;20027;-68
2022/10/03 08:05:37;;;;;;;17.83;5.75;;;13.10;99.90;;;;;;4993995;28;20026;-67
2022/10/03 08:08:51;;;;;;;21.42;5.10;;;13.30;99.90;;;;;;4998412;28;20053;-68
2022/10/03 08:12:11;;;;;;;12.73;4.25;;;13.50;99.90;;;;;;4993077;28;20039;-67
2022/10/03 08:15:10;;;;;;;14.65;4.88;;;13.50;99.90;;;;;;4993558;28;20031;-66
2022/10/03 08:18:02;;;;;;;13.95;4.70;;;13.50;99.90;;;;;;4974078;28;20035;-68
2022/10/03 08:20:54;;;;;;;10.90;4.60;;;13.30;99.90;;;;;;4981496;28;20063;-68
2022/10/03 08:24:16;;;;;;;12.80;4.18;;;13.20;99.90;;;;;;4989342;28;20097;-70
2022/10/03 08:27:02;;;;;;;13.98;4.88;;;13.20;99.90;;;;;;4994818;28;20034;-66
2022/10/03 08:30:08;;;;;;;14.65;5.03;;;13.40;99.90;;;;;;5000171;28;20050;-68
2022/10/03 08:33:09;;;;;;;13.02;4.80;;;13.60;99.90;;;;;;4984012;28;20038;-67
2022/10/03 08:36:04;;;;;;;15.43;4.97;;;13.70;99.90;;;;;;5005322;28;20030;-66
2022/10/03 08:39:15;;;;;;;13.43;5.03;;;13.60;99.90;;;;;;4988480;28;20045;-69
2022/10/03 08:42:26;;;;;;;14.98;4.65;;;13.50;99.90;;;;;;5005418;28;20061;-68
2022/10/03 08:45:37;;;;;;;12.68;4.47;;;13.70;99.90;;;;;;4993533;28;20037;-67
2022/10/03 08:49:02;;;;;;;12.75;4.35;;;13.80;99.90;;;;;;4993462;28;20030;-68
2022/10/03 08:52:20;;;;;;;14.32;4.85;;;13.60;99.90;;;;;;4991951;28;20067;-69
2022/10/03 08:55:33;;;;;;;12.23;4.22;;;13.80;99.90;;;;;;4992719;28;20049;-69
2022/10/03 08:59:00;;;;;;;9.95;4.05;;;14.00;99.90;;;;;;4992515;28;20026;-67
2022/10/03 09:02:02;;;;;;;14.63;4.78;;;13.90;99.90;;;;;;4951109;29;20031;-68
2022/10/03 09:05:02;;;;;;;19.48;4.80;;;13.80;99.90;;;;;;4991682;28;20453;-69
2022/10/03 09:08:12;;;;;;;10.88;4.65;;;13.90;99.90;;;;;;4989047;28;20561;-71
2022/10/03 09:11:05;;;;;;;13.20;4.95;;;13.90;99.90;;;;;;4991778;28;20018;-70
2022/10/03 09:14:28;;;;;;;10.77;5.45;;;14.10;99.90;;;;;;4992626;28;20491;-69
2022/10/03 09:17:23;;;;;;;14.27;4.80;;;14.00;99.90;;;;;;4990114;28;20038;-72
2022/10/03 09:20:33;;;;;;;11.13;4.30;;;13.80;99.90;;;;;;4992556;28;20038;-69
2022/10/03 09:23:28;;;;;;;10.52;4.55;;;13.90;99.90;;;;;;4979692;28;20121;-72
2022/10/03 09:26:29;;;;;;;13.82;4.72;;;14.20;99.90;;;;;;4989121;28;20104;-71
2022/10/03 09:29:33;;;;;;;12.52;4.75;;;14.30;99.90;;;;;;4998488;28;20022;-71
2022/10/03 09:32:40;;;;;;;11.05;4.13;;;14.30;99.90;;;;;;4979270;28;20033;-68
2022/10/03 09:36:03;;;;;;;12.65;4.72;;;14.30;99.90;;;;;;4991014;28;20040;-69
2022/10/03 09:38:58;;;;;;;12.07;5.32;;;14.30;99.90;;;;;;4989293;28;20387;-70
2022/10/03 09:42:20;;;;;;;12.90;4.50;;;14.70;99.90;;;;;;4989440;28;20027;-68
2022/10/03 09:45:45;;;;;;;13.23;5.13;;;14.80;99.90;;;;;;4972649;28;20034;-70
2022/10/03 09:48:44;;;;;;;12.30;4.53;;;14.60;99.90;;;;;;4936224;28;20022;-71
2022/10/03 09:51:30;;;;;;;14.63;5.32;;;14.30;99.90;;;;;;5003992;28;20945;-73
2022/10/03 09:54:50;;;;;;;13.05;4.82;;;14.10;99.90;;;;;;4986749;28;20038;-69
2022/10/03 09:58:31;;;;;;;11.57;4.85;;;14.00;99.90;;;;;;4976327;28;20041;-67
2022/10/03 10:02:00;;;;;;;14.32;4.72;;;14.00;99.90;;;;;;4976814;28;20034;-72
2022/10/03 10:05:19;;;;;;;13.70;4.90;;;14.10;99.90;;;;;;4919103;29;20036;-67
2022/10/03 10:08:14;;;;;;;17.02;5.50;;;14.40;99.90;;;;;;5000520;28;20109;-68
2022/10/03 10:11:25;;;;;;;13.43;4.00;;;14.60;99.90;;;;;;4969022;28;20025;-69
2022/10/03 10:14:42;;;;;;;10.82;4.07;;;14.80;99.90;;;;;;4980725;28;20531;-68
2022/10/03 10:17:50;;;;;;;10.70;4.10;;;14.90;99.90;;;;;;4988461;28;20018;-68
2022/10/03 10:20:54;;;;;;;13.75;4.30;;;15.20;99.90;;;;;;4986752;28;20101;-67
2022/10/03 10:24:10;;;;;;;16.33;4.47;;;15.20;99.80;;;;;;4986532;28;20029;-67
2022/10/03 10:27:15;;;;;;;14.88;3.95;;;15.30;99.20;;;;;;4968192;28;20034;-68
2022/10/03 10:30:37;;;;;;;9.40;4.40;;;15.20;99.10;;;;;;4979407;28;20125;-63
2022/10/03 10:34:00;;;;;;;16.35;4.15;;;15.30;99.30;;;;;;4966363;28;20028;-69
2022/10/03 10:37:18;;;;;;;10.77;3.83;;;15.30;98.90;;;;;;4977277;28;20092;-68
2022/10/03 10:40:06;;;;;;;14.70;3.33;;;15.30;98.80;;;;;;4982147;28;20030;-67
2022/10/03 10:43:07;;;;;;;11.73;3.63;;;15.50;98.80;;;;;;4977936;28;20091;-69
2022/10/03 10:46:29;;;;;;;10.48;3.88;;;15.50;98.40;;;;;;4979523;28;20031;-71
2022/10/03 10:49:47;;;;;;;10.55;4.13;;;15.70;98.00;;;;;;4938645;28;20038;-70
2022/10/03 10:53:11;;;;;;;10.75;3.38;;;15.70;97.70;;;;;;4992178;28;20029;-69
2022/10/03 10:56:33;;;;;;;14.20;3.65;;;15.40;98.30;;;;;;4981784;28;20030;-67
2022/10/03 10:59:40;;;;;;;12.45;3.42;;;15.30;98.20;;;;;;4967936;28;20035;-71
2022/10/03 11:02:45;;;;;;;11.75;4.07;;;15.20;97.60;;;;;;4984643;28;20041;-69
2022/10/03 11:05:50;;;;;;;8.97;3.17;;;15.30;98.00;;;;;;4977701;28;20030;-69
2022/10/03 11:08:55;;;;;;;8.93;3.33;;;15.40;98.00;;;;;;4981589;28;20054;-69
2022/10/03 11:12:13;;;;;;;;;;;15.50;98.00;;;;;;4983048;28;20704;-69
2022/10/03 11:15:37;;;;;;;13.93;4.65;;;15.80;97.30;;;;;;4973083;28;19921;-72
2022/10/03 11:19:01;;;;;;;13.23;3.88;;;15.80;97.10;;;;;;4982157;28;20018;-69
2022/10/03 11:22:07;;;;;;;9.73;3.60;;;15.80;97.20;;;;;;4982290;28;20026;-72
2022/10/03 11:25:39;;;;;;;9.82;3.28;;;15.90;97.10;;;;;;4983939;28;20490;-69
2022/10/03 11:28:59;;;;;;;12.43;3.42;;;15.80;96.80;;;;;;4981097;28;20038;-69
2022/10/03 11:32:07;;;;;;;10.27;3.38;;;15.70;96.80;;;;;;4978371;28;20030;-71
2022/10/03 11:35:11;;;;;;;11.20;3.20;;;15.90;96.60;;;;;;4994830;28;20177;-68
2022/10/03 11:38:06;;;;;;;9.27;3.20;;;15.90;96.60;;;;;;4985595;28;20027;-69
2022/10/03 11:41:07;;;;;;;10.85;3.72;;;15.90;96.70;;;;;;4983787;28;20022;-71
2022/10/03 11:44:23;;;;;;;14.35;3.67;;;15.90;96.30;;;;;;4979710;28;20023;-69
2022/10/03 11:47:36;;;;;;;10.90;3.55;;;16.00;96.50;;;;;;5002621;28;20031;-70
2022/10/03 11:50:47;;;;;;;10.85;3.30;;;15.90;96.40;;;;;;5013281;28;20041;-69
2022/10/03 11:53:44;;;;;;;8.25;3.25;;;15.80;96.80;;;;;;4984857;28;20026;-70
2022/10/03 11:56:44;;;;;;;11.65;3.60;;;15.80;96.90;;;;;;4982868;28;20038;-69
2022/10/03 11:59:52;;;;;;;12.82;3.55;;;15.80;96.80;;;;;;4989731;28;20490;-69
2022/10/03 12:03:32;;;;;;;9.02;3.53;;;15.60;96.80;;;;;;4986123;28;20034;-68
2022/10/03 12:09:53;;;;;;;8.85;3.70;;;15.80;96.90;;;;;;4996814;28;20085;-68
2022/10/03 12:12:47;;;;;;;8.85;3.65;;;15.90;97.10;;;;;;4987265;28;20042;-70
2022/10/03 12:15:45;;;;;;;9.60;3.33;;;15.90;97.30;;;;;;4986686;28;20030;-69
2022/10/03 12:18:43;;;;;;;9.00;3.30;;;15.90;96.90;;;;;;4991238;28;20508;-69
2022/10/03 12:21:56;;;;;;;12.05;3.85;;;16.00;97.20;;;;;;4983510;28;20022;-70
2022/10/03 12:24:44;;;;;;;13.18;4.25;;;16.10;97.30;;;;;;4979871;28;20037;-70
2022/10/03 12:27:45;;;;;;;9.30;3.30;;;16.10;96.70;;;;;;4984441;28;21007;-70
2022/10/03 12:30:47;;;;;;;9.20;3.47;;;16.00;96.50;;;;;;4987265;28;20029;-70
2022/10/03 12:33:59;;;;;;;7.80;3.40;;;16.30;96.70;;;;;;4973979;28;20664;-72
2022/10/03 12:37:11;;;;;;;8.07;3.40;;;16.30;96.00;;;;;;4994608;28;20504;-65
2022/10/03 12:40:23;;;;;;;9.82;3.45;;;16.20;96.40;;;;;;4989486;28;20038;-68
2022/10/03 12:43:23;;;;;;;11.70;3.40;;;16.20;95.80;;;;;;5012346;28;20053;-69
2022/10/03 12:46:49;;;;;;;12.30;3.63;;;16.30;96.10;;;;;;5001302;28;20102;-66
2022/10/03 12:50:09;;;;;;;9.27;3.00;;;16.40;96.30;;;;;;4991763;28;20092;-67
2022/10/03 12:53:11;;;;;;;9.02;3.40;;;16.40;96.30;;;;;;4986906;28;20279;-64
2022/10/03 12:56:33;;;;;;;7.88;2.83;;;16.50;95.60;;;;;;4984814;28;20026;-70
2022/10/03 12:59:34;;;;;;;8.32;3.50;;;16.50;95.20;;;;;;4992163;28;20022;-66
2022/10/03 13:02:34;;;;;;;7.47;3.40;;;16.30;95.20;;;;;;4988478;28;20014;-66
2022/10/03 13:05:54;;;;;;;8.43;3.13;;;16.30;95.50;;;;;;4990744;28;20164;-69
2022/10/03 13:08:53;;;;;;;8.50;3.45;;;16.40;95.40;;;;;;4977965;28;20041;-68
2022/10/03 13:12:07;;;;;;;7.57;3.00;;;16.40;95.50;;;;;;4991452;28;20038;-68
2022/10/03 13:15:16;;;;;;;8.18;3.13;;;16.50;95.20;;;;;;4991259;28;20026;-69
2022/10/03 13:18:17;;;;;;;8.15;3.10;;;16.60;95.10;;;;;;4972872;28;20027;-69
2022/10/03 13:21:29;;;;;;;6.00;2.97;;;16.50;94.90;;;;;;4982058;28;20125;-67
2022/10/03 13:24:33;;;;;;;5.68;2.92;;;16.40;95.50;;;;;;4983850;28;20026;-67
2022/10/03 13:28:06;;;;;;;5.75;2.83;;;16.40;95.60;;;;;;4983411;28;20026;-66
2022/10/03 13:31:16;;;;;;;10.50;2.67;;;16.20;95.60;;;;;;4944680;28;20111;-69
2022/10/03 13:34:18;;;;;;;5.85;2.70;;;16.00;96.30;;;;;;4950221;29;20023;-73
2022/10/03 13:37:08;;;;;;;6.03;2.58;;;15.80;96.50;;;;;;4987080;28;20037;-67
2022/10/03 13:40:03;;;;;;;11.02;3.10;;;15.80;96.60;;;;;;4990143;28;20085;-70
2022/10/03 13:42:52;;;;;;;8.90;3.30;;;15.90;96.70;;;;;;4982157;28;20022;-71
2022/10/03 13:45:45;;;;;;;8.43;3.20;;;16.20;96.50;;;;;;5004013;28;20053;-68
2022/10/03 13:48:32;;;;;;;15.55;3.75;;;16.50;96.30;;;;;;4984377;28;20120;-68
2022/10/03 13:51:44;;;;;;;6.95;2.83;;;16.70;96.00;;;;;;4981460;28;20026;-69
2022/10/03 13:54:49;;;;;;;6.60;3.47;;;17.00;95.50;;;;;;4988101;28;20507;-69
2022/10/03 13:57:43;;;;;;;6.63;2.67;;;17.00;95.30;;;;;;4989509;28;20050;-68
2022/10/03 14:00:58;;;;;;;9.75;2.95;;;17.20;95.10;;;;;;4985208;28;20329;-68
2022/10/03 14:03:50;;;;;;;8.63;2.72;;;17.20;95.30;;;;;;4977457;28;20081;-67
2022/10/03 14:06:51;;;;;;;9.02;3.00;;;17.30;95.40;;;;;;4988406;28;20066;-66
2022/10/03 14:09:59;;;;;;;5.88;2.65;;;17.20;95.40;;;;;;4985346;28;20403;-67
2022/10/03 14:13:10;;;;;;;9.13;2.72;;;17.20;95.50;;;;;;4985517;28;20034;-68
2022/10/03 14:16:29;;;;;;;5.32;2.55;;;17.40;95.10;;;;;;4983200;28;20034;-66
2022/10/03 14:19:32;;;;;;;7.22;2.95;;;17.20;95.10;;;;;;4985124;28;20022;-67
2022/10/03 14:22:32;;;;;;;6.45;2.90;;;17.20;95.10;;;;;;4979417;28;20056;-67
2022/10/03 14:25:36;;;;;;;4.63;2.38;;;17.40;94.80;;;;;;4990128;28;20033;-67
2022/10/03 14:28:44;;;;;;;6.38;2.40;;;17.30;95.20;;;;;;4989754;28;20034;-68
2022/10/03 14:31:39;;;;;;;5.32;2.55;;;17.00;95.30;;;;;;4990157;28;20186;-67
2022/10/03 14:34:45;;;;;;;7.40;2.80;;;16.80;95.90;;;;;;4991339;28;20453;-67
2022/10/03 14:37:43;;;;;;;6.97;2.45;;;16.90;95.20;;;;;;4990516;28;20077;-67
2022/10/03 14:40:46;;;;;;;4.85;2.40;;;16.80;95.20;;;;;;4990287;28;20023;-66
2022/10/03 14:43:52;;;;;;;7.53;2.92;;;16.70;95.20;;;;;;4990438;28;20045;-68
2022/10/03 14:46:41;;;;;;;;;;;16.40;95.40;;;;;;4989861;28;20490;-68
2022/10/03 14:49:31;;;;;;;6.07;2.40;;;16.50;95.40;;;;;;4992200;28;19910;-68
2022/10/03 14:52:44;;;;;;;6.60;2.50;;;16.30;95.80;;;;;;4991083;28;20041;-68
2022/10/03 14:55:42;;;;;;;8.50;3.35;;;16.40;95.80;;;;;;4985303;28;20130;-66
2022/10/03 15:01:24;;;;;;;6.03;2.92;;;16.40;96.10;;;;;;5620654;22;20059;-48
2022/10/03 15:04:24;;;;;;;6.50;2.70;;;16.30;96.30;;;;;;5030192;28;20047;-52
2022/10/03 15:07:13;;;;;;;5.88;2.42;;;16.20;96.70;;;;;;5015993;28;20037;-54
2022/10/03 15:10:00;;;;;;;6.30;2.63;;;16.20;97.20;;;;;;5030664;28;20155;-56
2022/10/03 15:12:52;;;;;;;11.68;3.33;;;16.20;97.20;;;;;;5006151;28;20341;-52
2022/10/03 15:15:40;;;;;;;6.45;3.10;;;16.20;97.30;;;;;;5008531;28;20104;-50
2022/10/03 15:18:27;;;;;;;8.25;3.17;;;16.10;97.50;;;;;;5009458;28;20084;-52
2022/10/03 15:21:15;;;;;;;5.72;2.60;;;16.00;97.80;;;;;;5014623;28;20113;-55
2022/10/03 15:24:04;;;;;;;9.82;3.40;;;16.10;97.80;;;;;;5021027;28;20036;-52
2022/10/03 15:27:03;;;;;;;9.30;3.55;;;16.00;98.10;;;;;;5002145;28;20037;-55
2022/10/03 15:29:58;;;;;;;5.82;2.45;;;16.00;98.10;;;;;;5013580;28;20100;-51
2022/10/03 15:32:49;;;;;;;8.18;3.45;;;16.10;98.40;;;;;;5013227;28;20101;-51
2022/10/03 15:35:40;;;;;;;5.93;3.00;;;16.10;98.20;;;;;;5017085;28;20065;-53
2022/10/03 15:38:36;;;;;;;6.57;2.83;;;16.00;98.40;;;;;;5016538;28;20030;-51
2022/10/03 15:41:52;;;;;;;6.50;2.85;;;15.90;98.70;;;;;;5014932;28;20029;-52
2022/10/03 15:45:23;;;;;;;5.63;3.42;;;16.00;98.60;;;;;;5012796;28;20030;-54
2022/10/03 15:48:15;;;;;;;6.47;3.33;;;15.70;98.90;;;;;;4978825;28;20566;-51
2022/10/03 15:51:02;;;;;;;8.35;2.90;;;15.90;98.90;;;;;;5014118;28;20037;-51
2022/10/03 15:53:50;;;;;;;10.27;3.35;;;16.00;98.90;;;;;;5011828;28;20085;-56
2022/10/03 15:56:42;;;;;;;6.22;3.10;;;15.90;99.00;;;;;;5016604;28;20034;-56
2022/10/03 15:59:42;;;;;;;7.70;2.92;;;16.10;99.00;;;;;;5014709;28;20044;-60
2022/10/03 16:02:38;;;;;;;9.95;3.53;;;16.00;99.10;;;;;;4999256;28;20110;-47
2022/10/03 16:05:26;;;;;;;8.68;3.20;;;15.90;99.10;;;;;;5014203;28;20022;-48
2022/10/03 16:08:19;;;;;;;7.15;2.72;;;15.90;99.30;;;;;;5031175;28;20025;-49
2022/10/03 16:11:21;;;;;;;8.65;3.10;;;15.80;99.60;;;;;;5014565;28;20030;-57
2022/10/03 16:14:25;;;;;;;6.97;2.95;;;15.90;99.50;;;;;;5014818;28;20026;-52